Time;durP1;ratioP1;P1;durP2;ratioP2;P2;SDS_P1;SDS_P2;PMS_P1;PMS_P2;Temp;Humidity;BMP_temperature;BMP_pressure;BME280_temperature;BME280_humidity;BME280_pressure;Samples;Min_cycle;Max_cycle;Signal;HPM_P1;HPM_P2
2023/03/26 00:00:56;;;;;;;;;23.80;23.80;;;;;;;;5052159;29;9546;-65
2023/03/26 00:03:28;;;;;;;;;40.00;38.20;;;;;;;;5051745;29;8822;-65
2023/03/26 00:06:06;;;;;;;;;36.40;35.40;;;;;;;;5051895;29;8824;-65
2023/03/26 00:08:38;;;;;;;;;31.00;29.40;;;;;;;;5051916;29;9576;-65
2023/03/26 00:11:10;;;;;;;;;22.40;22.40;;;;;;;;5051827;29;8932;-65
2023/03/26 00:13:44;;;;;;;;;21.80;20.80;;;;;;;;5036316;29;8789;-65
2023/03/26 00:16:17;;;;;;;;;28.20;28.00;;;;;;;;5068478;29;8830;-65
2023/03/26 00:18:50;;;;;;;;;24.60;24.60;;;;;;;;5050613;29;8861;-66
2023/03/26 00:21:26;;;;;;;;;23.00;23.00;;;;;;;;5035766;29;8826;-66
2023/03/26 00:24:03;;;;;;;;;16.00;16.00;;;;;;;;5067662;29;8818;-66
2023/03/26 00:26:36;;;;;;;;;12.60;12.60;;;;;;;;5051660;29;9540;-66
2023/03/26 00:29:08;;;;;;;;;15.80;15.80;;;;;;;;5051234;29;8844;-66
2023/03/26 00:31:57;;;;;;;;;23.40;23.40;;;;;;;;5068975;29;8818;-66
2023/03/26 00:34:28;;;;;;;;;22.20;21.60;;;;;;;;5051429;29;8809;-66
2023/03/26 00:37:19;;;;;;;;;13.60;13.60;;;;;;;;5068253;29;8810;-65
2023/03/26 00:39:50;;;;;;;;;24.60;24.60;;;;;;;;5035123;29;8837;-65
2023/03/26 00:42:21;;;;;;;;;19.20;16.40;;;;;;;;5035610;29;8869;-65
2023/03/26 00:44:56;;;;;;;;;19.25;19.25;;;;;;;;5067834;29;8798;-65
2023/03/26 00:47:27;;;;;;;;;35.20;34.60;;;;;;;;5051043;29;11491;-65
2023/03/26 00:49:59;;;;;;;;;37.20;35.40;;;;;;;;5050459;29;9537;-66
2023/03/26 00:52:30;;;;;;;;;39.20;36.60;;;;;;;;5034760;29;8783;-65
2023/03/26 00:55:01;;;;;;;;;35.00;32.20;;;;;;;;5067644;29;8817;-65
2023/03/26 00:57:36;;;;;;;;;25.20;25.00;;;;;;;;5035533;29;8786;-65
2023/03/26 01:00:15;;;;;;;;;28.40;27.80;;;;;;;;5050772;29;8825;-65
2023/03/26 01:02:46;;;;;;;;;25.40;25.00;;;;;;;;5067443;29;8798;-65
2023/03/26 01:05:54;;;;;;;;;24.00;24.00;;;;;;;;5050699;29;8794;-65
2023/03/26 01:08:29;;;;;;;;;22.80;21.60;;;;;;;;5037392;29;8818;-65
2023/03/26 01:11:03;;;;;;;;;24.00;24.00;;;;;;;;5050420;29;8948;-66
2023/03/26 01:13:36;;;;;;;;;35.40;34.40;;;;;;;;5050727;29;8815;-65
2023/03/26 01:16:18;;;;;;;;;33.60;33.20;;;;;;;;5050428;29;8846;-66
2023/03/26 01:18:51;;;;;;;;;32.40;32.00;;;;;;;;5047694;29;9024;-66
2023/03/26 01:21:27;;;;;;;;;42.40;38.60;;;;;;;;5033364;29;8838;-66
2023/03/26 01:23:59;;;;;;;;;24.20;22.60;;;;;;;;5050570;29;9593;-66
2023/03/26 01:26:30;;;;;;;;;21.80;21.40;;;;;;;;5050232;29;8824;-66
2023/03/26 01:29:02;;;;;;;;;20.50;20.50;;;;;;;;5035013;29;8814;-65
2023/03/26 01:31:39;;;;;;;;;16.80;16.80;;;;;;;;5067249;29;8782;-66
2023/03/26 01:34:16;;;;;;;;;14.00;13.80;;;;;;;;5035147;29;8800;-66
2023/03/26 01:36:51;;;;;;;;;18.80;18.80;;;;;;;;5067047;29;8805;-66
2023/03/26 01:39:25;;;;;;;;;13.20;13.20;;;;;;;;5050042;29;8841;-66
2023/03/26 01:42:07;;;;;;;;;13.25;12.75;;;;;;;;5050315;29;8897;-65
2023/03/26 01:45:00;;;;;;;;;13.80;13.40;;;;;;;;5066972;29;8805;-65
2023/03/26 01:47:31;;;;;;;;;16.80;16.80;;;;;;;;5050322;29;9513;-65
2023/03/26 01:50:02;;;;;;;;;18.80;18.80;;;;;;;;5049918;29;8809;-66
2023/03/26 01:52:33;;;;;;;;;19.80;19.80;;;;;;;;5030716;29;9648;-66
2023/03/26 01:55:07;;;;;;;;;19.25;18.75;;;;;;;;5049166;29;8835;-66
2023/03/26 01:57:47;;;;;;;;;14.20;14.20;;;;;;;;5049726;29;11084;-66
2023/03/26 02:00:21;;;;;;;;;15.00;13.60;;;;;;;;5049721;29;8861;-66
2023/03/26 02:03:00;;;;;;;;;20.60;20.60;;;;;;;;5049910;29;9621;-66
2023/03/26 02:05:46;;;;;;;;;23.00;23.00;;;;;;;;5034516;29;9424;-66
2023/03/26 02:08:21;;;;;;;;;20.60;20.60;;;;;;;;5049816;29;8809;-66
2023/03/26 02:10:56;;;;;;;;;19.00;19.00;;;;;;;;5033816;29;8864;-66
2023/03/26 02:13:27;;;;;;;;;35.00;35.00;;;;;;;;5049767;29;8889;-66
2023/03/26 02:16:00;;;;;;;;;64.00;54.40;;;;;;;;5066197;29;8846;-65
2023/03/26 02:18:40;;;;;;;;;48.40;40.00;;;;;;;;5034168;29;8790;-65
2023/03/26 02:21:13;;;;;;;;;42.20;39.60;;;;;;;;5065302;29;8817;-65
2023/03/26 02:23:45;;;;;;;;;36.40;36.00;;;;;;;;5030024;29;8812;-65
2023/03/26 02:26:18;;;;;;;;;26.00;24.40;;;;;;;;5045214;29;8785;-65
2023/03/26 02:29:12;;;;;;;;;42.00;39.00;;;;;;;;5017579;29;8815;-65
2023/03/26 02:31:49;;;;;;;;;37.00;35.60;;;;;;;;5029978;29;8990;-65
2023/03/26 02:34:20;;;;;;;;;34.60;33.00;;;;;;;;5014468;29;8800;-65
2023/03/26 02:36:56;;;;;;;;;42.40;38.40;;;;;;;;5030479;29;8796;-65
2023/03/26 02:39:27;;;;;;;;;37.00;36.00;;;;;;;;4999429;29;9568;-65
2023/03/26 02:42:02;;;;;;;;;30.40;30.00;;;;;;;;5052871;29;8802;-65
2023/03/26 02:44:39;;;;;;;;;27.00;27.00;;;;;;;;5049530;29;9035;-66
2023/03/26 02:47:12;;;;;;;;;30.80;29.60;;;;;;;;5065675;29;8920;-65
2023/03/26 02:49:56;;;;;;;;;22.20;22.20;;;;;;;;5065485;29;8798;-65
2023/03/26 02:52:42;;;;;;;;;22.20;22.20;;;;;;;;5033624;29;8782;-65
2023/03/26 02:55:13;;;;;;;;;18.60;18.60;;;;;;;;5048791;29;8864;-65
2023/03/26 02:57:45;;;;;;;;;21.40;21.40;;;;;;;;5032958;29;8802;-65
2023/03/26 03:00:22;;;;;;;;;13.40;13.40;;;;;;;;5065436;29;8822;-65
2023/03/26 03:03:12;;;;;;;;;18.00;18.00;;;;;;;;5051656;29;8797;-65
2023/03/26 03:06:01;;;;;;;;;19.20;18.40;;;;;;;;5065853;29;8810;-65
2023/03/26 03:08:54;;;;;;;;;18.20;18.00;;;;;;;;5051065;29;8805;-65
2023/03/26 03:11:40;;;;;;;;;21.80;21.60;;;;;;;;5048365;29;8798;-65
2023/03/26 03:14:12;;;;;;;;;12.00;11.60;;;;;;;;5048784;29;8790;-66
2023/03/26 03:16:43;;;;;;;;;19.00;19.00;;;;;;;;5048747;29;8906;-66
2023/03/26 03:19:32;;;;;;;;;18.60;18.40;;;;;;;;5051019;29;11495;-66
2023/03/26 03:22:03;;;;;;;;;18.50;18.50;;;;;;;;5048141;29;9534;-66
2023/03/26 03:24:35;;;;;;;;;22.60;22.60;;;;;;;;5033410;29;10840;-66
2023/03/26 03:27:25;;;;;;;;;20.80;20.80;;;;;;;;5035655;29;8864;-66
2023/03/26 03:30:05;;;;;;;;;28.60;26.20;;;;;;;;5048378;29;8814;-66
2023/03/26 03:33:05;;;;;;;;;25.20;23.60;;;;;;;;5048135;29;8793;-66
2023/03/26 03:35:38;;;;;;;;;28.20;28.00;;;;;;;;5052918;29;8809;-66
2023/03/26 03:38:10;;;;;;;;;28.40;28.20;;;;;;;;5069342;29;9498;-66
2023/03/26 03:40:50;;;;;;;;;36.00;35.20;;;;;;;;5036689;29;9549;-65
2023/03/26 03:43:40;;;;;;;;;57.00;48.00;;;;;;;;5068984;29;8809;-66
2023/03/26 03:46:16;;;;;;;;;63.60;50.80;;;;;;;;5052470;29;8806;-66
2023/03/26 03:48:49;;;;;;;;;46.20;40.60;;;;;;;;5037287;29;9564;-66
2023/03/26 03:51:28;;;;;;;;;35.80;35.00;;;;;;;;5037834;29;8825;-66
2023/03/26 03:54:05;;;;;;;;;21.80;20.80;;;;;;;;5051881;29;8822;-66
2023/03/26 03:57:00;;;;;;;;;24.80;24.40;;;;;;;;5049351;29;8892;-65
2023/03/26 03:59:40;;;;;;;;;25.00;24.40;;;;;;;;5032067;29;9533;-66
2023/03/26 04:02:24;;;;;;;;;23.60;22.80;;;;;;;;5048272;29;8822;-66
2023/03/26 04:05:01;;;;;;;;;21.20;20.80;;;;;;;;5042995;29;8848;-66
2023/03/26 04:07:33;;;;;;;;;35.00;35.00;;;;;;;;5035660;29;9545;-69
2023/03/26 04:10:27;;;;;;;;;19.20;19.00;;;;;;;;5063066;29;9601;-66
2023/03/26 04:13:13;;;;;;;;;21.00;21.00;;;;;;;;5053895;29;9624;-66
2023/03/26 04:16:14;;;;;;;;;30.00;29.00;;;;;;;;5008341;29;8971;-66
2023/03/26 04:18:45;;;;;;;;;31.00;31.00;;;;;;;;5032461;29;8879;-65
2023/03/26 04:21:18;;;;;;;;;44.40;39.80;;;;;;;;5049189;29;8851;-66
2023/03/26 04:23:49;;;;;;;;;35.60;35.20;;;;;;;;5068011;29;9554;-65
2023/03/26 04:26:40;;;;;;;;;24.20;24.00;;;;;;;;5048279;29;8792;-66
2023/03/26 04:29:23;;;;;;;;;19.60;19.00;;;;;;;;5032622;29;8926;-65
2023/03/26 04:32:05;;;;;;;;;25.80;25.80;;;;;;;;5028837;29;8877;-65
2023/03/26 04:34:36;;;;;;;;;21.00;21.00;;;;;;;;5051729;29;9632;-65
2023/03/26 04:37:26;;;;;;;;;31.60;30.60;;;;;;;;5035609;29;8833;-65
2023/03/26 04:40:12;;;;;;;;;36.00;34.60;;;;;;;;5051529;29;8833;-65
2023/03/26 04:42:57;;;;;;;;;30.40;29.80;;;;;;;;5035210;29;8824;-66
2023/03/26 04:45:47;;;;;;;;;17.80;17.40;;;;;;;;5062744;29;8808;-65
2023/03/26 04:48:20;;;;;;;;;19.80;19.80;;;;;;;;5065253;29;8810;-65
2023/03/26 04:50:52;;;;;;;;;16.60;16.40;;;;;;;;5051155;29;8880;-66
2023/03/26 04:53:24;;;;;;;;;15.40;15.40;;;;;;;;5035130;29;8794;-66
2023/03/26 04:56:24;;;;;;;;;19.80;19.80;;;;;;;;5051202;29;8921;-66
2023/03/26 04:59:33;;;;;;;;;22.20;22.20;;;;;;;;5016183;29;8837;-65
2023/03/26 05:02:07;;;;;;;;;22.20;22.20;;;;;;;;5050324;29;8782;-65
2023/03/26 05:04:52;;;;;;;;;30.80;26.20;;;;;;;;5018876;29;8874;-66
2023/03/26 05:07:25;;;;;;;;;19.40;19.40;;;;;;;;5032035;29;8815;-65
2023/03/26 05:10:02;;;;;;;;;20.40;19.80;;;;;;;;5085024;29;8838;-66
2023/03/26 05:12:59;;;;;;;;;20.00;20.00;;;;;;;;5068158;29;8802;-66
2023/03/26 05:15:33;;;;;;;;;15.40;15.40;;;;;;;;5050711;29;8837;-65
2023/03/26 05:18:12;;;;;;;;;18.40;18.40;;;;;;;;5035213;29;8812;-67
2023/03/26 05:20:49;;;;;;;;;18.00;18.00;;;;;;;;5049968;29;8871;-67
2023/03/26 05:23:20;;;;;;;;;8.20;8.20;;;;;;;;5049668;29;8844;-67
2023/03/26 05:26:11;;;;;;;;;17.20;17.20;;;;;;;;5049635;29;8809;-67
2023/03/26 05:28:42;;;;;;;;;18.80;18.20;;;;;;;;5067081;29;8790;-67
2023/03/26 05:31:36;;;;;;;;;20.60;20.60;;;;;;;;5033428;29;8838;-68
2023/03/26 05:34:08;;;;;;;;;16.40;16.40;;;;;;;;5046176;29;8937;-67
2023/03/26 05:36:39;;;;;;;;;12.25;12.25;;;;;;;;5046889;29;8994;-69
2023/03/26 05:39:36;;;;;;;;;10.00;10.00;;;;;;;;5046839;29;10536;-67
2023/03/26 05:42:25;;;;;;;;;12.25;11.75;;;;;;;;5047611;29;8825;-67
2023/03/26 05:45:09;;;;;;;;;13.60;13.60;;;;;;;;5032708;29;8802;-68
2023/03/26 05:47:40;;;;;;;;;13.80;13.80;;;;;;;;5065298;29;8816;-67
2023/03/26 05:50:29;;;;;;;;;16.80;16.60;;;;;;;;5064974;29;8892;-68
2023/03/26 05:53:04;;;;;;;;;12.40;12.40;;;;;;;;5031569;29;8824;-68
2023/03/26 05:55:35;;;;;;;;;17.25;16.25;;;;;;;;5049052;29;8855;-68
2023/03/26 05:58:25;;;;;;;;;22.60;22.20;;;;;;;;5041232;29;8860;-68
2023/03/26 06:01:28;;;;;;;;;17.20;17.20;;;;;;;;5043126;29;8846;-68
2023/03/26 06:04:19;;;;;;;;;21.80;21.00;;;;;;;;5034572;29;8826;-68
2023/03/26 06:07:10;;;;;;;;;17.80;17.80;;;;;;;;5025235;29;9690;-68
2023/03/26 06:10:00;;;;;;;;;20.20;20.00;;;;;;;;5059206;29;8905;-67
2023/03/26 06:12:31;;;;;;;;;9.80;9.40;;;;;;;;5063335;29;8794;-67
2023/03/26 06:15:02;;;;;;;;;14.25;14.25;;;;;;;;5031896;29;8826;-68
2023/03/26 06:17:46;;;;;;;;;14.25;14.25;;;;;;;;5047682;29;8806;-67
2023/03/26 06:20:24;;;;;;;;;16.00;16.00;;;;;;;;5044469;29;8834;-68
2023/03/26 06:22:56;;;;;;;;;18.25;18.25;;;;;;;;5032673;29;8801;-68
2023/03/26 06:25:46;;;;;;;;;15.00;15.00;;;;;;;;5065344;29;8782;-67
2023/03/26 06:28:26;;;;;;;;;16.60;16.00;;;;;;;;5065903;29;8922;-67
2023/03/26 06:31:16;;;;;;;;;12.20;12.20;;;;;;;;5063682;29;8889;-69
2023/03/26 06:33:55;;;;;;;;;25.40;25.40;;;;;;;;5065335;29;8798;-68
2023/03/26 06:36:26;;;;;;;;;20.25;20.25;;;;;;;;5033190;29;8782;-67
2023/03/26 06:38:57;;;;;;;;;17.40;17.40;;;;;;;;5048690;29;8837;-68
2023/03/26 06:41:28;;;;;;;;;25.60;25.60;;;;;;;;5048608;29;8805;-67
2023/03/26 06:44:18;;;;;;;;;21.40;21.40;;;;;;;;5051188;29;8794;-67
2023/03/26 06:47:18;;;;;;;;;15.60;15.60;;;;;;;;5030945;29;8812;-67
2023/03/26 06:50:15;;;;;;;;;21.60;21.60;;;;;;;;5054510;29;8793;-67
2023/03/26 06:53:04;;;;;;;;;19.80;19.80;;;;;;;;5046851;29;8804;-67
2023/03/26 06:55:53;;;;;;;;;40.20;36.80;;;;;;;;5032252;29;8887;-67
2023/03/26 06:58:44;;;;;;;;;34.20;32.40;;;;;;;;5041745;29;8801;-68
2023/03/26 07:01:41;;;;;;;;;36.20;33.80;;;;;;;;5037815;29;8789;-68
2023/03/26 07:04:31;;;;;;;;;15.60;15.60;;;;;;;;5048246;29;8798;-67
2023/03/26 07:07:23;;;;;;;;;31.20;29.00;;;;;;;;5050555;29;8801;-67
2023/03/26 07:10:14;;;;;;;;;18.80;18.80;;;;;;;;5035341;29;9550;-67
2023/03/26 07:13:00;;;;;;;;;19.60;19.40;;;;;;;;5035178;29;8989;-67
2023/03/26 07:15:49;;;;;;;;;24.60;23.40;;;;;;;;5048324;29;9055;-67
2023/03/26 07:18:41;;;;;;;;;35.00;34.00;;;;;;;;5019722;29;8806;-68
2023/03/26 07:21:15;;;;;;;;;25.00;25.00;;;;;;;;5047931;29;8801;-68
2023/03/26 07:24:05;;;;;;;;;18.00;18.00;;;;;;;;5031585;29;9555;-67
2023/03/26 07:27:06;;;;;;;;;13.60;13.60;;;;;;;;5044757;29;8965;-67
2023/03/26 07:29:49;;;;;;;;;17.80;17.80;;;;;;;;5013745;29;8811;-67
2023/03/26 07:32:46;;;;;;;;;19.00;19.00;;;;;;;;5013623;29;8846;-67
2023/03/26 07:35:42;;;;;;;;;57.00;45.40;;;;;;;;5022115;29;8847;-67
2023/03/26 07:38:42;;;;;;;;;63.00;51.40;;;;;;;;5057400;29;9644;-68
2023/03/26 07:41:36;;;;;;;;;67.40;52.00;;;;;;;;5044988;29;8841;-73
2023/03/26 07:44:26;;;;;;;;;26.80;25.00;;;;;;;;5044668;29;8821;-67
2023/03/26 07:47:24;;;;;;;;;23.20;22.00;;;;;;;;5049364;29;8891;-67
2023/03/26 07:50:20;;;;;;;;;22.00;21.40;;;;;;;;5039255;29;9558;-67
2023/03/26 07:53:09;;;;;;;;;22.80;22.40;;;;;;;;5062460;29;8836;-67
2023/03/26 07:56:09;;;;;;;;;32.20;32.20;;;;;;;;5046442;29;9631;-67
2023/03/26 07:59:15;;;;;;;;;29.00;28.00;;;;;;;;5044312;29;8844;-67
2023/03/26 08:02:00;;;;;;;;;24.40;23.00;;;;;;;;5063127;29;8836;-68
2023/03/26 08:04:50;;;;;;;;;17.25;17.25;;;;;;;;5049446;29;8840;-67
2023/03/26 08:08:15;;;;;;;;;16.00;16.00;;;;;;;;5063173;29;8858;-67
2023/03/26 08:11:07;;;;;;;;;27.20;26.80;;;;;;;;5048361;29;8824;-67
2023/03/26 08:13:47;;;;;;;;;30.80;30.80;;;;;;;;5032778;29;8798;-67
2023/03/26 08:16:22;;;;;;;;;21.00;21.00;;;;;;;;5032795;29;8848;-67
2023/03/26 08:18:56;;;;;;;;;22.00;22.00;;;;;;;;5018930;29;11484;-67
2023/03/26 08:21:34;;;;;;;;;17.60;17.60;;;;;;;;5051383;29;8786;-67
2023/03/26 08:24:24;;;;;;;;;17.25;17.25;;;;;;;;5020765;29;8810;-67
2023/03/26 08:27:17;;;;;;;;;26.80;26.00;;;;;;;;5067686;29;8826;-67
2023/03/26 08:30:01;;;;;;;;;20.40;20.40;;;;;;;;5068300;29;8944;-67
2023/03/26 08:32:32;;;;;;;;;19.80;19.80;;;;;;;;5051316;29;8809;-67
2023/03/26 08:35:22;;;;;;;;;23.50;23.25;;;;;;;;5067271;29;8802;-68
2023/03/26 08:37:53;;;;;;;;;18.50;18.50;;;;;;;;5068039;29;8794;-68
2023/03/26 08:40:27;;;;;;;;;24.00;23.50;;;;;;;;5051264;29;8893;-68
2023/03/26 08:43:09;;;;;;;;;20.00;19.50;;;;;;;;5067848;29;8877;-68
2023/03/26 08:45:50;;;;;;;;;19.50;19.50;;;;;;;;5068119;29;8948;-68
2023/03/26 08:48:32;;;;;;;;;20.75;20.75;;;;;;;;5058065;29;8802;-68
2023/03/26 08:51:11;;;;;;;;;16.25;16.25;;;;;;;;5050739;29;8844;-67
2023/03/26 08:53:51;;;;;;;;;24.50;22.25;;;;;;;;5067463;29;8805;-69
2023/03/26 08:56:31;;;;;;;;;26.40;24.80;;;;;;;;5034820;29;9019;-68
2023/03/26 08:59:06;;;;;;;;;37.40;33.60;;;;;;;;5019990;29;8818;-67
2023/03/26 09:01:57;;;;;;;;;28.20;28.20;;;;;;;;5050767;29;8832;-68
2023/03/26 09:04:30;;;;;;;;;28.00;28.00;;;;;;;;5047137;29;8793;-67
2023/03/26 09:07:20;;;;;;;;;29.20;28.80;;;;;;;;5050833;29;8794;-67
2023/03/26 09:10:10;;;;;;;;;36.00;34.20;;;;;;;;5035280;29;8786;-68
2023/03/26 09:12:59;;;;;;;;;37.60;34.80;;;;;;;;5056003;29;8809;-68
2023/03/26 09:15:36;;;;;;;;;32.40;31.60;;;;;;;;5050548;29;8864;-68
2023/03/26 09:18:16;;;;;;;;;21.80;21.40;;;;;;;;5050453;29;8820;-68
2023/03/26 09:20:47;;;;;;;;;15.00;15.00;;;;;;;;5035038;29;8931;-68
2023/03/26 09:23:24;;;;;;;;;14.33;14.33;;;;;;;;5050141;29;8940;-68
2023/03/26 09:26:13;;;;;;;;;17.75;17.75;;;;;;;;5049941;29;9663;-71
2023/03/26 09:28:57;;;;;;;;;12.25;12.25;;;;;;;;5034359;29;8812;-68
2023/03/26 09:32:05;;;;;;;;;13.25;13.25;;;;;;;;5066523;29;8802;-68
2023/03/26 09:34:36;;;;;;;;;19.75;19.25;;;;;;;;5047654;29;8796;-68
2023/03/26 09:37:10;;;;;;;;;19.25;19.00;;;;;;;;5034518;29;8857;-69
2023/03/26 09:39:47;;;;;;;;;22.25;21.50;;;;;;;;5034625;29;8817;-68
2023/03/26 09:42:33;;;;;;;;;21.75;19.50;;;;;;;;5050714;29;9550;-68
2023/03/26 09:45:23;;;;;;;;;26.20;26.00;;;;;;;;5050172;29;8814;-68
2023/03/26 09:48:13;;;;;;;;;23.20;23.20;;;;;;;;5049952;29;8844;-68
2023/03/26 09:50:51;;;;;;;;;23.80;23.80;;;;;;;;5046641;29;8825;-68
2023/03/26 09:53:25;;;;;;;;;15.75;15.75;;;;;;;;5045845;29;8804;-68
2023/03/26 09:56:14;;;;;;;;;17.25;17.25;;;;;;;;5030537;29;8799;-70
2023/03/26 09:58:55;;;;;;;;;20.50;20.50;;;;;;;;5032669;29;8806;-69
2023/03/26 10:01:32;;;;;;;;;29.40;29.20;;;;;;;;5047867;29;8802;-68
2023/03/26 10:04:46;;;;;;;;;45.00;38.80;;;;;;;;5050832;29;8794;-68
2023/03/26 10:07:20;;;;;;;;;45.00;38.60;;;;;;;;5027075;29;9570;-70
2023/03/26 10:10:07;;;;;;;;;27.25;26.00;;;;;;;;5028671;29;8803;-67
2023/03/26 10:12:41;;;;;;;;;18.00;18.00;;;;;;;;5043777;29;8808;-68
2023/03/26 10:15:31;;;;;;;;;17.00;17.00;;;;;;;;5083675;29;8812;-67
2023/03/26 10:18:26;;;;;;;;;17.25;17.25;;;;;;;;5066724;29;8827;-68
2023/03/26 10:21:03;;;;;;;;;18.75;18.75;;;;;;;;5071686;29;8833;-68
2023/03/26 10:23:55;;;;;;;;;24.60;24.60;;;;;;;;5031685;29;8818;-68
2023/03/26 10:26:35;;;;;;;;;26.75;26.00;;;;;;;;5032357;29;9510;-69
2023/03/26 10:29:19;;;;;;;;;17.25;17.25;;;;;;;;5064013;29;8920;-69
2023/03/26 10:32:08;;;;;;;;;21.00;21.00;;;;;;;;5047265;29;8841;-69
2023/03/26 10:35:18;;;;;;;;;23.25;23.00;;;;;;;;5032076;29;8827;-70
2023/03/26 10:38:01;;;;;;;;;25.25;25.25;;;;;;;;4989127;29;8842;-69
2023/03/26 10:40:43;;;;;;;;;19.25;19.25;;;;;;;;4986238;29;8844;-67
2023/03/26 10:43:20;;;;;;;;;19.00;19.00;;;;;;;;5031119;29;9596;-69
2023/03/26 10:46:01;;;;;;;;;23.00;22.40;;;;;;;;5031334;29;8828;-69
2023/03/26 10:48:53;;;;;;;;;18.00;17.25;;;;;;;;5033224;29;8793;-68
2023/03/26 10:51:50;;;;;;;;;14.00;14.00;;;;;;;;5048172;29;8818;-68
2023/03/26 10:54:39;;;;;;;;;13.00;13.00;;;;;;;;5047195;29;8830;-68
2023/03/26 10:57:17;;;;;;;;;10.00;10.00;;;;;;;;5048796;29;8829;-68
2023/03/26 11:00:14;;;;;;;;;13.75;13.75;;;;;;;;5065284;29;8818;-68
2023/03/26 11:03:08;;;;;;;;;14.75;14.75;;;;;;;;5065043;29;8853;-68
2023/03/26 11:06:15;;;;;;;;;16.75;16.25;;;;;;;;5065014;29;8794;-68
2023/03/26 11:08:49;;;;;;;;;19.60;19.60;;;;;;;;5065212;29;8849;-68
2023/03/26 11:11:54;;;;;;;;;21.00;21.00;;;;;;;;5065737;29;8797;-69
2023/03/26 11:14:25;;;;;;;;;14.00;14.00;;;;;;;;5054548;29;9525;-68
2023/03/26 11:16:59;;;;;;;;;21.00;21.00;;;;;;;;5017100;29;8870;-68
2023/03/26 11:19:37;;;;;;;;;30.20;29.80;;;;;;;;5032887;29;8832;-68
2023/03/26 11:22:29;;;;;;;;;29.00;28.80;;;;;;;;5051074;29;8814;-68
2023/03/26 11:25:00;;;;;;;;;27.80;27.00;;;;;;;;5048371;29;8920;-68
2023/03/26 11:28:00;;;;;;;;;28.40;28.40;;;;;;;;5047760;29;9533;-69
2023/03/26 11:30:45;;;;;;;;;22.20;22.20;;;;;;;;5029211;29;8800;-68
2023/03/26 11:33:21;;;;;;;;;19.25;19.25;;;;;;;;5029030;29;9571;-68
2023/03/26 11:35:56;;;;;;;;;10.50;10.50;;;;;;;;5048219;29;8824;-68
2023/03/26 11:38:32;;;;;;;;;11.50;11.50;;;;;;;;5032379;29;8822;-67
2023/03/26 11:41:09;;;;;;;;;12.50;12.50;;;;;;;;5033216;29;8821;-67
2023/03/26 11:44:22;;;;;;;;;6.25;6.25;;;;;;;;5057393;29;8822;-68
2023/03/26 11:46:57;;;;;;;;;11.25;11.25;;;;;;;;5031357;29;8819;-68
2023/03/26 11:49:28;;;;;;;;;19.25;19.25;;;;;;;;5013714;29;8828;-68
2023/03/26 11:52:00;;;;;;;;;14.33;14.00;;;;;;;;5045446;29;8804;-69
2023/03/26 11:54:32;;;;;;;;;9.50;9.50;;;;;;;;5047105;29;9516;-69
2023/03/26 11:57:09;;;;;;;;;14.75;14.75;;;;;;;;5034263;29;8792;-68
2023/03/26 11:59:47;;;;;;;;;12.75;12.75;;;;;;;;5035593;29;8849;-68
2023/03/26 12:02:40;;;;;;;;;20.75;20.50;;;;;;;;5054569;29;8794;-68
2023/03/26 12:05:19;;;;;;;;;19.50;18.75;;;;;;;;5036337;29;8809;-69
2023/03/26 12:07:52;;;;;;;;;21.00;21.00;;;;;;;;5051952;29;8806;-69
2023/03/26 12:10:30;;;;;;;;;15.75;15.75;;;;;;;;5036270;29;8797;-69
2023/03/26 12:13:05;;;;;;;;;15.25;15.25;;;;;;;;5035820;29;8879;-69
2023/03/26 12:15:41;;;;;;;;;13.25;13.25;;;;;;;;5051444;29;8946;-69
2023/03/26 12:18:31;;;;;;;;;14.00;13.50;;;;;;;;5068369;29;8858;-69
2023/03/26 12:21:04;;;;;;;;;11.00;11.00;;;;;;;;5048035;29;8858;-69
2023/03/26 12:23:44;;;;;;;;;13.75;13.75;;;;;;;;5064803;29;8818;-70
2023/03/26 12:26:19;;;;;;;;;11.00;10.50;;;;;;;;5066051;29;8792;-69
2023/03/26 12:28:51;;;;;;;;;15.50;15.25;;;;;;;;5034031;29;8834;-71
2023/03/26 12:31:25;;;;;;;;;14.50;14.50;;;;;;;;5018905;29;9517;-69
2023/03/26 12:34:06;;;;;;;;;15.25;15.25;;;;;;;;5065919;29;8968;-69
2023/03/26 12:36:37;;;;;;;;;14.80;14.80;;;;;;;;5033780;29;8786;-69
2023/03/26 12:39:24;;;;;;;;;17.00;17.00;;;;;;;;5065883;29;8828;-69
2023/03/26 12:41:56;;;;;;;;;18.00;17.00;;;;;;;;5066291;29;8945;-69
2023/03/26 12:44:49;;;;;;;;;17.50;17.50;;;;;;;;5048916;29;8840;-70
2023/03/26 12:47:38;;;;;;;;;23.80;23.40;;;;;;;;5066089;29;8794;-69
2023/03/26 12:50:13;;;;;;;;;27.00;26.00;;;;;;;;5065201;29;8864;-69
2023/03/26 12:52:53;;;;;;;;;36.00;34.20;;;;;;;;5033660;29;8810;-69
2023/03/26 12:55:43;;;;;;;;;35.80;33.80;;;;;;;;5048702;29;8895;-68
2023/03/26 12:58:33;;;;;;;;;36.40;34.40;;;;;;;;5065407;29;8793;-68
2023/03/26 13:01:10;;;;;;;;;25.60;25.60;;;;;;;;5065575;29;8814;-69
2023/03/26 13:03:59;;;;;;;;;21.75;21.50;;;;;;;;5048833;29;8786;-69
2023/03/26 13:06:40;;;;;;;;;19.00;19.00;;;;;;;;5065707;29;8824;-69
2023/03/26 13:09:26;;;;;;;;;18.50;18.50;;;;;;;;5048450;29;8829;-69
2023/03/26 13:11:57;;;;;;;;;18.25;18.00;;;;;;;;5050798;29;8964;-68
2023/03/26 13:14:46;;;;;;;;;13.50;13.50;;;;;;;;5085246;29;8938;-70
2023/03/26 13:17:25;;;;;;;;;18.00;18.00;;;;;;;;5067321;29;8944;-68
2023/03/26 13:20:22;;;;;;;;;15.25;15.25;;;;;;;;5062181;29;8843;-69
2023/03/26 13:22:54;;;;;;;;;12.75;12.75;;;;;;;;5049165;29;8802;-69
2023/03/26 13:25:40;;;;;;;;;23.80;23.80;;;;;;;;5049059;29;8880;-68
2023/03/26 13:28:27;;;;;;;;;21.75;19.75;;;;;;;;5034850;29;8806;-68
2023/03/26 13:31:01;;;;;;;;;14.50;14.50;;;;;;;;5065633;29;8794;-68
2023/03/26 13:33:50;;;;;;;;;19.25;19.25;;;;;;;;5050134;29;8824;-68
2023/03/26 13:36:37;;;;;;;;;20.50;19.75;;;;;;;;5048131;29;8833;-69
2023/03/26 13:39:15;;;;;;;;;19.50;18.50;;;;;;;;5049382;29;8834;-69
2023/03/26 13:41:46;;;;;;;;;14.50;14.50;;;;;;;;5050163;29;8825;-68
2023/03/26 13:44:29;;;;;;;;;13.75;13.75;;;;;;;;5034478;29;8782;-69
2023/03/26 13:47:03;;;;;;;;;18.50;18.50;;;;;;;;5049826;29;9592;-69
2023/03/26 13:49:38;;;;;;;;;16.75;16.75;;;;;;;;5049306;29;8813;-69
2023/03/26 13:52:11;;;;;;;;;15.25;15.25;;;;;;;;5049754;29;8805;-69
2023/03/26 13:54:46;;;;;;;;;17.75;16.75;;;;;;;;5066229;29;8830;-69
2023/03/26 13:57:18;;;;;;;;;13.50;13.50;;;;;;;;5034312;29;8786;-69
2023/03/26 13:59:53;;;;;;;;;15.00;15.00;;;;;;;;5048157;29;9989;-70
2023/03/26 14:02:34;;;;;;;;;10.33;10.33;;;;;;;;5047404;29;8963;-69
2023/03/26 14:05:11;;;;;;;;;13.75;13.75;;;;;;;;5033574;29;9597;-69
2023/03/26 14:07:49;;;;;;;;;11.75;11.75;;;;;;;;5031611;29;8824;-69
2023/03/26 14:10:24;;;;;;;;;12.50;12.00;;;;;;;;5049585;29;8805;-69
2023/03/26 14:12:54;;;;;;;;;15.00;15.00;;;;;;;;5061924;29;8802;-70
2023/03/26 14:15:29;;;;;;;;;23.33;23.00;;;;;;;;5045977;29;8852;-69
2023/03/26 14:18:19;;;;;;;;;23.40;22.80;;;;;;;;5046905;29;11530;-70
2023/03/26 14:20:56;;;;;;;;;27.80;27.80;;;;;;;;5057237;29;8802;-70
2023/03/26 14:23:38;;;;;;;;;29.60;26.60;;;;;;;;5064362;29;8794;-70
2023/03/26 14:26:42;;;;;;;;;25.40;24.60;;;;;;;;5065122;29;8821;-69
2023/03/26 14:29:32;;;;;;;;;41.00;36.80;;;;;;;;5049258;29;8801;-69
2023/03/26 14:32:15;;;;;;;;;37.40;35.60;;;;;;;;5049213;29;8809;-69
2023/03/26 14:35:05;;;;;;;;;42.60;38.20;;;;;;;;5049005;29;9474;-69
2023/03/26 14:37:36;;;;;;;;;32.80;32.20;;;;;;;;5066005;29;8822;-68
2023/03/26 14:40:13;;;;;;;;;41.00;35.60;;;;;;;;5048406;29;9682;-69
2023/03/26 14:42:53;;;;;;;;;29.40;27.20;;;;;;;;5048783;29;8819;-69
2023/03/26 14:46:01;;;;;;;;;40.40;36.80;;;;;;;;5047723;29;8801;-69
2023/03/26 14:48:32;;;;;;;;;46.20;40.00;;;;;;;;5048787;29;9454;-68
2023/03/26 14:51:07;;;;;;;;;51.00;42.20;;;;;;;;5048417;29;8785;-69
2023/03/26 14:54:02;;;;;;;;;42.60;36.80;;;;;;;;5061318;29;8806;-69
2023/03/26 14:56:49;;;;;;;;;49.80;41.80;;;;;;;;5066062;29;8924;-69
2023/03/26 14:59:30;;;;;;;;;55.00;46.80;;;;;;;;5047960;29;8913;-69
2023/03/26 15:02:23;;;;;;;;;54.40;45.00;;;;;;;;5032585;29;8802;-70
2023/03/26 15:04:57;;;;;;;;;66.20;52.40;;;;;;;;5064896;29;8936;-69
2023/03/26 15:07:43;;;;;;;;;76.00;57.20;;;;;;;;5064800;29;8809;-69
2023/03/26 15:10:21;;;;;;;;;84.80;76.00;;;;;;;;5029252;29;8805;-69
2023/03/26 15:13:11;;;;;;;;;96.60;85.40;;;;;;;;5047765;29;8807;-69
2023/03/26 15:15:49;;;;;;;;;109.25;98.75;;;;;;;;5052849;29;8852;-69
2023/03/26 15:18:26;;;;;;;;;129.75;116.50;;;;;;;;5063468;29;9526;-69
2023/03/26 15:21:20;;;;;;;;;119.50;107.50;;;;;;;;5047515;29;8860;-69
2023/03/26 15:24:10;;;;;;;;;87.60;82.40;;;;;;;;5047946;29;8838;-69
2023/03/26 15:26:40;;;;;;;;;72.80;58.20;;;;;;;;5048023;29;8806;-70
2023/03/26 15:29:18;;;;;;;;;76.50;60.50;;;;;;;;5064442;29;8881;-71
2023/03/26 15:32:07;;;;;;;;;72.80;56.40;;;;;;;;5065066;29;8794;-70
2023/03/26 15:34:53;;;;;;;;;80.25;66.75;;;;;;;;5032765;29;8847;-70
2023/03/26 15:37:25;;;;;;;;;85.60;78.00;;;;;;;;5032561;29;9748;-71
2023/03/26 15:40:08;;;;;;;;;83.80;70.80;;;;;;;;5047942;29;8825;-70
2023/03/26 15:42:44;;;;;;;;;86.40;76.00;;;;;;;;5059276;29;8892;-70
2023/03/26 15:45:32;;;;;;;;;87.40;72.40;;;;;;;;5046005;29;8813;-70
2023/03/26 15:48:09;;;;;;;;;77.80;60.60;;;;;;;;5045946;29;9641;-70
2023/03/26 15:50:59;;;;;;;;;69.80;54.80;;;;;;;;5063095;29;8884;-70
2023/03/26 15:53:32;;;;;;;;;64.40;51.60;;;;;;;;5030470;29;8786;-70
2023/03/26 15:56:21;;;;;;;;;61.80;49.80;;;;;;;;5045720;29;8846;-70